createdAt,value
2023-04-08T00:01:49.589Z,7.10
2023-04-08T00:04:17.851Z,7.00
2023-04-08T00:06:46.034Z,7.10
2023-04-08T00:09:14.153Z,7.10
2023-04-08T00:11:44.154Z,7.10
2023-04-08T00:14:13.648Z,7.10
2023-04-08T00:16:41.874Z,7.10
2023-04-08T00:19:10.145Z,7.10
2023-04-08T00:21:38.222Z,7.10
2023-04-08T00:24:07.045Z,7.10
2023-04-08T00:26:38.516Z,7.00
2023-04-08T00:29:33.986Z,7.00
2023-04-08T00:32:02.108Z,7.00
2023-04-08T00:34:50.982Z,7.00
2023-04-08T00:37:20.286Z,7.00
2023-04-08T00:39:48.425Z,7.10
2023-04-08T00:42:16.712Z,7.10
2023-04-08T00:44:48.588Z,7.20
2023-04-08T00:47:20.525Z,7.10
2023-04-08T00:49:48.701Z,7.10
2023-04-08T00:52:17.027Z,7.10
2023-04-08T00:54:45.511Z,7.10
2023-04-08T00:57:13.687Z,7.10
2023-04-08T00:59:43.067Z,7.10
2023-04-08T01:02:19.241Z,7.10
2023-04-08T01:04:57.375Z,7.10
2023-04-08T01:07:29.384Z,7.20
2023-04-08T01:10:00.789Z,7.10
2023-04-08T01:12:31.182Z,7.20
2023-04-08T01:15:05.894Z,7.20
2023-04-08T01:17:39.416Z,7.20
2023-04-08T01:20:35.715Z,7.20
2023-04-08T01:23:12.069Z,7.10
2023-04-08T01:25:41.114Z,7.10
2023-04-08T01:28:17.385Z,7.10
2023-04-08T01:30:47.843Z,7.10
2023-04-08T01:33:19.471Z,7.10
2023-04-08T01:35:50.501Z,7.10
2023-04-08T01:38:21.670Z,7.00
2023-04-08T01:40:50.662Z,7.10
2023-04-08T01:43:23.221Z,7.00
2023-04-08T01:45:58.100Z,6.90
2023-04-08T01:48:26.834Z,6.90
2023-04-08T01:50:56.978Z,6.80
2023-04-08T01:53:25.691Z,6.80
2023-04-08T01:55:59.447Z,6.80
2023-04-08T01:58:33.730Z,6.70
2023-04-08T02:01:02.329Z,6.60
2023-04-08T02:03:34.372Z,6.60
2023-04-08T02:06:02.737Z,6.60
2023-04-08T02:08:33.920Z,6.50
2023-04-08T02:11:05.601Z,6.50
2023-04-08T02:13:35.432Z,6.50
2023-04-08T02:16:12.340Z,6.40
2023-04-08T02:18:46.957Z,6.30
2023-04-08T02:21:17.426Z,6.30
2023-04-08T02:23:54.957Z,6.20
2023-04-08T02:26:24.676Z,6.10
2023-04-08T02:28:56.305Z,6.10
2023-04-08T02:31:25.927Z,6.00
2023-04-08T02:33:54.440Z,6.00
2023-04-08T02:36:23.428Z,5.90
2023-04-08T02:38:52.407Z,5.90
2023-04-08T02:41:21.364Z,5.80
2023-04-08T02:43:49.697Z,5.80
2023-04-08T02:46:19.319Z,5.70
2023-04-08T02:48:49.414Z,5.60
2023-04-08T02:51:19.989Z,5.50
2023-04-08T02:53:51.189Z,5.40
2023-04-08T02:56:19.333Z,5.40
2023-04-08T02:59:06.045Z,5.30
2023-04-08T03:01:38.425Z,5.30
2023-04-08T03:04:06.898Z,5.20
2023-04-08T03:06:35.057Z,5.20
2023-04-08T03:09:03.169Z,5.10
2023-04-08T03:11:31.319Z,5.10
2023-04-08T03:13:59.915Z,5.10
2023-04-08T03:16:28.168Z,5.00
2023-04-08T03:18:57.724Z,5.00
2023-04-08T03:21:27.099Z,5.00
2023-04-08T03:23:55.331Z,5.00
2023-04-08T03:26:23.472Z,5.00
2023-04-08T03:28:53.542Z,5.00
2023-04-08T03:31:22.183Z,5.00
2023-04-08T03:33:50.404Z,5.00
2023-04-08T03:36:19.902Z,5.00
2023-04-08T03:38:48.199Z,4.90
2023-04-08T03:41:16.720Z,4.90
2023-04-08T03:43:44.878Z,4.90
2023-04-08T03:46:13.157Z,4.90
2023-04-08T03:48:41.339Z,4.80
2023-04-08T03:51:09.447Z,4.80
2023-04-08T03:53:38.917Z,4.80
2023-04-08T03:56:07.929Z,4.80
2023-04-08T03:58:36.101Z,4.80
2023-04-08T04:01:05.056Z,4.70
2023-04-08T04:03:33.284Z,4.70
2023-04-08T04:06:01.592Z,4.70
2023-04-08T04:08:29.701Z,4.60
2023-04-08T04:11:00.121Z,4.60
2023-04-08T04:13:28.338Z,4.70
2023-04-08T04:15:59.161Z,4.70
2023-04-08T04:18:27.404Z,4.60
2023-04-08T04:20:55.581Z,4.60
2023-04-08T04:23:25.763Z,4.60
2023-04-08T04:25:53.946Z,4.50
2023-04-08T04:28:23.410Z,4.60
2023-04-08T04:30:51.556Z,4.60
2023-04-08T04:33:19.653Z,4.60
2023-04-08T04:35:47.780Z,4.60
2023-04-08T04:38:16.252Z,4.60
2023-04-08T04:40:45.062Z,4.60
2023-04-08T04:43:13.214Z,4.70
2023-04-08T04:45:42.736Z,4.70
2023-04-08T04:48:11.152Z,4.80
2023-04-08T04:50:39.318Z,4.80
2023-04-08T04:53:07.468Z,4.80
2023-04-08T04:55:37.486Z,4.90
2023-04-08T04:58:06.848Z,5.00
2023-04-08T05:00:35.013Z,5.00
2023-04-08T05:03:04.699Z,5.10
2023-04-08T05:05:32.968Z,5.10
2023-04-08T05:08:01.136Z,5.10
2023-04-08T05:10:29.295Z,5.10
2023-04-08T05:12:57.489Z,5.10
2023-04-08T05:15:25.780Z,5.10
2023-04-08T05:17:54.002Z,5.10
2023-04-08T05:20:23.536Z,5.10
2023-04-08T05:22:51.665Z,5.20
2023-04-08T05:25:19.905Z,5.30
2023-04-08T05:27:48.038Z,5.40
2023-04-08T05:30:16.828Z,5.40
2023-04-08T05:32:45.037Z,5.50
2023-04-08T05:35:13.249Z,5.60
2023-04-08T05:37:45.180Z,5.70
2023-04-08T05:40:13.639Z,5.70
2023-04-08T05:42:45.261Z,5.80
2023-04-08T05:45:13.461Z,5.80
2023-04-08T05:47:41.645Z,5.90
2023-04-08T05:50:13.522Z,6.00
2023-04-08T05:52:47.344Z,6.10
2023-04-08T05:55:16.069Z,6.10
2023-04-08T05:57:45.021Z,6.20
2023-04-08T06:00:13.739Z,6.20
2023-04-08T06:02:42.220Z,6.30
2023-04-08T06:05:10.933Z,6.40
2023-04-08T06:07:39.167Z,6.50
2023-04-08T06:10:10.049Z,6.60
2023-04-08T06:12:41.129Z,6.70
2023-04-08T06:15:10.674Z,6.80
2023-04-08T06:17:39.018Z,7.00
2023-04-08T06:20:09.306Z,7.00
2023-04-08T06:22:38.000Z,7.00
2023-04-08T06:25:08.178Z,7.10
2023-04-08T06:27:36.366Z,7.10
2023-04-08T06:30:04.769Z,7.20
2023-04-08T06:32:32.931Z,7.20
2023-04-08T06:35:01.819Z,7.40
2023-04-08T06:37:30.021Z,7.50
2023-04-08T06:39:58.295Z,7.50
2023-04-08T06:42:35.191Z,7.70
2023-04-08T06:45:29.962Z,7.90
2023-04-08T06:47:58.130Z,8.00
2023-04-08T06:50:26.507Z,8.10
2023-04-08T06:52:55.163Z,8.20
2023-04-08T06:55:23.545Z,8.20
2023-04-08T06:57:56.097Z,8.30
2023-04-08T07:00:24.217Z,8.40
2023-04-08T07:02:53.019Z,8.50
2023-04-08T07:05:21.187Z,8.60
2023-04-08T07:07:49.356Z,8.70
2023-04-08T07:10:17.485Z,8.80
2023-04-08T07:12:45.584Z,8.90
2023-04-08T07:15:15.536Z,8.90
2023-04-08T07:17:43.838Z,9.10
2023-04-08T07:20:13.724Z,9.20
2023-04-08T07:22:41.839Z,9.20
2023-04-08T07:25:10.692Z,9.20
2023-04-08T07:27:38.837Z,9.30
2023-04-08T07:30:08.235Z,9.40
2023-04-08T07:32:38.106Z,9.50
2023-04-08T07:35:07.255Z,9.60
2023-04-08T07:37:35.361Z,9.70
2023-04-08T07:40:03.495Z,9.80
2023-04-08T07:42:31.967Z,9.90
2023-04-08T07:45:00.292Z,10.00
2023-04-08T07:47:28.481Z,10.20
2023-04-08T07:49:58.160Z,10.20
2023-04-08T07:52:28.809Z,10.30
2023-04-08T07:54:56.938Z,10.30
2023-04-08T07:57:25.576Z,10.50
2023-04-08T07:59:53.933Z,10.50
2023-04-08T08:02:22.136Z,10.70
2023-04-08T08:04:50.509Z,10.80
2023-04-08T08:07:20.000Z,10.90
2023-04-08T08:09:48.182Z,11.00
2023-04-08T08:12:16.366Z,11.00
2023-04-08T08:14:44.496Z,11.00
2023-04-08T08:17:12.815Z,11.10
2023-04-08T08:19:41.369Z,11.20
2023-04-08T08:22:09.429Z,11.30
2023-04-08T08:24:39.087Z,11.50
2023-04-08T08:27:08.224Z,11.60
2023-04-08T08:29:37.097Z,12.40
2023-04-08T08:32:11.087Z,14.10
2023-04-08T08:34:42.862Z,16.30
2023-04-08T08:37:11.128Z,18.30
2023-04-08T08:39:40.921Z,20.10
2023-04-08T08:42:32.732Z,21.70
2023-04-08T08:45:29.744Z,23.20
2023-04-08T08:48:22.480Z,24.90
2023-04-08T08:50:56.425Z,26.10
2023-04-08T08:53:58.678Z,26.70
2023-04-08T08:56:39.070Z,27.50
2023-04-08T08:59:09.772Z,28.20
2023-04-08T09:01:39.108Z,29.00
2023-04-08T09:04:19.547Z,29.70
2023-04-08T09:06:50.283Z,30.50
2023-04-08T09:09:20.502Z,31.20
2023-04-08T09:11:49.978Z,31.80
2023-04-08T09:14:23.375Z,32.30
2023-04-08T09:16:52.077Z,32.30
2023-04-08T09:19:20.772Z,31.70
2023-04-08T09:22:13.690Z,31.40
2023-04-08T09:24:44.488Z,31.60
2023-04-08T09:27:15.433Z,32.00
2023-04-08T09:29:43.760Z,32.20
2023-04-08T09:32:11.971Z,32.00
2023-04-08T09:34:45.881Z,32.10
2023-04-08T09:37:16.789Z,32.40
2023-04-08T09:39:46.205Z,32.80
2023-04-08T09:42:15.831Z,33.00
2023-04-08T09:44:48.262Z,33.40
2023-04-08T09:47:22.079Z,33.30
2023-04-08T09:49:58.511Z,32.70
2023-04-08T09:52:34.381Z,32.70
2023-04-08T09:55:14.387Z,32.80
2023-04-08T10:00:44.067Z,33.40
2023-04-08T10:03:27.813Z,33.70
2023-04-08T10:05:57.613Z,33.90
2023-04-08T10:08:27.156Z,33.60
2023-04-08T10:10:58.707Z,33.00
2023-04-08T10:16:24.490Z,33.00
2023-04-08T10:18:56.107Z,33.30
2023-04-08T10:21:38.602Z,33.50
2023-04-08T10:24:11.082Z,33.40
2023-04-08T10:26:41.569Z,33.30
2023-04-08T10:29:44.312Z,33.30
2023-04-08T10:32:30.713Z,33.10
2023-04-08T10:34:58.889Z,33.00
2023-04-08T10:40:39.000Z,32.30
2023-04-08T10:43:07.258Z,32.10
2023-04-08T10:45:37.079Z,31.90
2023-04-08T10:48:15.543Z,31.80
2023-04-08T10:50:44.286Z,31.60
2023-04-08T10:53:12.858Z,31.60
2023-04-08T10:55:41.124Z,31.60
2023-04-08T10:58:09.744Z,31.50
2023-04-08T11:00:42.104Z,31.20
2023-04-08T11:03:29.135Z,31.00
2023-04-08T11:06:02.906Z,30.50
2023-04-08T11:08:33.887Z,30.00
2023-04-08T11:11:05.575Z,29.70
2023-04-08T11:13:34.785Z,29.20
2023-04-08T11:16:17.793Z,28.70
2023-04-08T11:18:48.110Z,28.30
2023-04-08T11:21:16.824Z,27.80
2023-04-08T11:23:45.032Z,27.30
2023-04-08T11:26:14.801Z,27.00
2023-04-08T11:28:46.588Z,26.70
2023-04-08T11:31:24.324Z,26.40
2023-04-08T11:33:56.292Z,26.40
2023-04-08T11:36:24.538Z,26.20
2023-04-08T11:38:55.304Z,26.10
2023-04-08T11:41:23.843Z,26.10
2023-04-08T11:43:56.129Z,26.00
2023-04-08T11:46:26.045Z,25.80
2023-04-08T11:49:02.386Z,25.60
2023-04-08T11:51:30.699Z,25.40
2023-04-08T11:53:59.071Z,25.30
2023-04-08T11:56:30.571Z,25.20
2023-04-08T11:58:58.710Z,25.20
2023-04-08T12:01:28.502Z,25.00
2023-04-08T12:04:00.794Z,24.90
2023-04-08T12:06:30.738Z,24.80
2023-04-08T12:09:01.138Z,24.60
2023-04-08T12:11:29.378Z,24.40
2023-04-08T12:14:00.284Z,24.20
2023-04-08T12:16:32.287Z,23.90
2023-04-08T12:19:00.429Z,23.60
2023-04-08T12:21:28.908Z,23.30
2023-04-08T12:23:57.470Z,23.20
2023-04-08T12:26:25.568Z,22.90
2023-04-08T12:28:53.745Z,22.60
2023-04-08T12:31:22.778Z,22.50
2023-04-08T12:33:56.252Z,22.50
2023-04-08T12:36:28.020Z,22.30
2023-04-08T12:38:56.425Z,22.10
2023-04-08T12:41:27.199Z,21.80
2023-04-08T12:43:58.369Z,21.60
2023-04-08T12:46:27.238Z,21.70
2023-04-08T12:49:04.261Z,21.70
2023-04-08T12:51:35.737Z,21.60
2023-04-08T12:54:04.481Z,21.50
2023-04-08T12:56:33.038Z,21.40
2023-04-08T12:59:01.900Z,21.40
2023-04-08T13:01:30.872Z,21.40
2023-04-08T13:04:00.866Z,21.40
2023-04-08T13:06:29.186Z,21.40
2023-04-08T13:09:23.512Z,21.30
2023-04-08T13:11:51.667Z,21.20
2023-04-08T13:14:22.052Z,21.20
2023-04-08T13:16:53.111Z,21.30
2023-04-08T13:19:22.697Z,21.10
2023-04-08T13:21:50.808Z,20.80
2023-04-08T13:24:18.964Z,20.50
2023-04-08T13:26:59.393Z,20.40
2023-04-08T13:29:28.395Z,20.20
2023-04-08T13:31:56.652Z,19.90
2023-04-08T13:34:31.440Z,19.80
2023-04-08T13:37:06.080Z,19.70
2023-04-08T13:39:37.210Z,19.70
2023-04-08T13:42:05.380Z,19.60
2023-04-08T13:44:33.574Z,19.50
2023-04-08T13:47:02.013Z,19.50
2023-04-08T13:49:31.614Z,19.50
2023-04-08T13:52:24.821Z,19.40
2023-04-08T13:54:55.214Z,19.30
2023-04-08T13:57:41.574Z,19.20
2023-04-08T14:00:11.506Z,19.10
2023-04-08T14:02:39.696Z,19.20
2023-04-08T14:05:09.980Z,19.10
2023-04-08T14:07:38.134Z,19.10
2023-04-08T14:10:09.843Z,19.00
2023-04-08T14:12:43.144Z,19.00
2023-04-08T14:15:14.719Z,18.90
2023-04-08T14:17:42.915Z,18.80
2023-04-08T14:20:12.623Z,18.70
2023-04-08T14:22:41.982Z,18.70
2023-04-08T14:25:10.956Z,18.60
2023-04-08T14:27:47.703Z,18.50
2023-04-08T14:30:25.306Z,18.40
2023-04-08T14:33:01.075Z,18.30
2023-04-08T14:35:31.935Z,18.30
2023-04-08T14:38:00.663Z,18.20
2023-04-08T14:40:31.184Z,18.20
2023-04-08T14:42:59.281Z,18.20
2023-04-08T14:45:28.124Z,18.10
2023-04-08T14:47:58.385Z,18.00
2023-04-08T14:50:26.633Z,17.90
2023-04-08T14:52:56.124Z,17.80
2023-04-08T14:55:24.252Z,17.80
2023-04-08T14:57:55.194Z,17.90
2023-04-08T15:00:25.348Z,17.80
2023-04-08T15:02:56.279Z,17.70
2023-04-08T15:05:24.521Z,17.70
2023-04-08T15:07:52.713Z,17.70
2023-04-08T15:10:24.009Z,17.50
2023-04-08T15:12:53.346Z,17.40
2023-04-08T15:15:27.335Z,17.30
2023-04-08T15:17:55.699Z,17.20
2023-04-08T15:20:23.905Z,17.10
2023-04-08T15:22:52.218Z,17.10
2023-04-08T15:25:21.984Z,17.00
2023-04-08T15:27:50.151Z,16.90
2023-04-08T15:30:24.227Z,16.90
2023-04-08T15:32:52.618Z,16.80
2023-04-08T15:35:20.960Z,16.70
2023-04-08T15:37:49.039Z,16.50
2023-04-08T15:40:17.495Z,16.40
2023-04-08T15:42:50.052Z,16.30
2023-04-08T15:45:18.577Z,16.20
2023-04-08T15:47:47.273Z,16.10
2023-04-08T15:50:17.307Z,16.00
2023-04-08T15:52:45.656Z,15.80
2023-04-08T15:55:13.918Z,15.70
2023-04-08T15:57:42.029Z,15.60
2023-04-08T16:00:13.937Z,15.60
2023-04-08T16:02:46.586Z,15.50
2023-04-08T16:05:15.029Z,15.50
2023-04-08T16:07:46.349Z,15.40
2023-04-08T16:10:14.529Z,15.40
2023-04-08T16:12:42.666Z,15.40
2023-04-08T16:15:12.640Z,15.30
2023-04-08T16:17:43.765Z,15.30
2023-04-08T16:20:12.682Z,15.20
2023-04-08T16:22:40.940Z,15.20
2023-04-08T16:25:09.545Z,15.20
2023-04-08T16:27:39.044Z,15.10
2023-04-08T16:30:08.384Z,15.10
2023-04-08T16:32:38.462Z,15.10
2023-04-08T16:35:07.458Z,15.10
2023-04-08T16:37:38.468Z,15.00
2023-04-08T16:40:07.924Z,15.00
2023-04-08T16:42:36.190Z,14.90
2023-04-08T16:45:07.853Z,14.90
2023-04-08T16:47:39.348Z,14.90
2023-04-08T16:50:08.968Z,14.90
2023-04-08T16:52:37.403Z,14.80
2023-04-08T16:55:05.952Z,14.70
2023-04-08T16:57:34.092Z,14.70
2023-04-08T17:00:02.236Z,14.70
2023-04-08T17:02:31.378Z,14.60
2023-04-08T17:05:01.252Z,14.60
2023-04-08T17:07:29.480Z,14.50
2023-04-08T17:09:57.666Z,14.50
2023-04-08T17:12:26.612Z,14.50
2023-04-08T17:14:54.842Z,14.40
2023-04-08T17:17:23.037Z,14.30
2023-04-08T17:19:51.197Z,14.30
2023-04-08T17:22:21.530Z,14.30
2023-04-08T17:24:49.653Z,14.20
2023-04-08T17:27:21.283Z,14.20
2023-04-08T17:29:49.504Z,14.20
2023-04-08T17:32:17.657Z,14.10
2023-04-08T17:34:45.940Z,14.10
2023-04-08T17:37:16.291Z,14.00
2023-04-08T17:39:46.082Z,14.00
2023-04-08T17:42:14.628Z,13.90
2023-04-08T17:44:44.716Z,13.90
2023-04-08T17:47:13.074Z,13.90
2023-04-08T17:49:41.218Z,13.80
2023-04-08T17:52:09.451Z,13.80
2023-04-08T17:54:37.595Z,13.80
2023-04-08T17:57:07.260Z,13.70
2023-04-08T17:59:35.462Z,13.70
2023-04-08T18:02:03.752Z,13.60
2023-04-08T18:04:32.002Z,13.60
2023-04-08T18:07:03.929Z,13.50
2023-04-08T18:09:32.205Z,13.50
2023-04-08T18:12:00.374Z,13.40
2023-04-08T18:14:32.160Z,13.30
2023-04-08T18:17:00.446Z,13.30
2023-04-08T18:19:28.628Z,13.20
2023-04-08T18:21:56.876Z,13.20
2023-04-08T18:24:25.213Z,13.00
2023-04-08T18:27:03.539Z,12.90
2023-04-08T18:29:34.604Z,12.80
2023-04-08T18:32:02.753Z,12.70
2023-04-08T18:34:32.014Z,12.70
2023-04-08T18:37:00.907Z,12.60
2023-04-08T18:39:29.065Z,12.50
2023-04-08T18:41:57.383Z,12.40
2023-04-08T18:44:25.830Z,12.20
2023-04-08T18:46:55.771Z,12.10
2023-04-08T18:49:23.943Z,11.90
2023-04-08T18:52:01.758Z,11.80
2023-04-08T18:54:31.593Z,11.70
2023-04-08T18:57:02.744Z,11.70
2023-04-08T18:59:31.506Z,11.50
2023-04-08T19:02:01.498Z,11.40
2023-04-08T19:04:29.938Z,11.30
2023-04-08T19:06:58.149Z,11.30
2023-04-08T19:09:26.266Z,11.20
2023-04-08T19:11:54.587Z,11.10
2023-04-08T19:14:22.710Z,11.10
2023-04-08T19:16:50.936Z,11.00
2023-04-08T19:19:20.397Z,11.00
2023-04-08T19:21:48.948Z,10.90
2023-04-08T19:24:20.863Z,10.80
2023-04-08T19:26:50.828Z,10.80
2023-04-08T19:29:19.887Z,10.70
2023-04-08T19:31:48.070Z,10.70
2023-04-08T19:34:16.207Z,10.70
2023-04-08T19:36:46.398Z,10.70
2023-04-08T19:39:14.511Z,10.70
2023-04-08T19:41:42.698Z,10.70
2023-04-08T19:44:11.020Z,10.70
2023-04-08T19:46:39.186Z,10.60
2023-04-08T19:49:07.474Z,10.60
2023-04-08T19:51:35.598Z,10.60
2023-04-08T19:54:05.131Z,10.60
2023-04-08T19:56:34.120Z,10.50
2023-04-08T19:59:02.506Z,10.50
2023-04-08T20:01:30.857Z,10.50
2023-04-08T20:03:59.086Z,10.50
2023-04-08T20:06:27.361Z,10.40
2023-04-08T20:09:05.162Z,10.40
2023-04-08T20:11:36.953Z,10.40
2023-04-08T20:14:06.059Z,10.40
2023-04-08T20:16:34.355Z,10.40
2023-04-08T20:19:02.635Z,10.40
2023-04-08T20:21:30.915Z,10.40
2023-04-08T20:23:59.097Z,10.40
2023-04-08T20:26:27.329Z,10.40
2023-04-08T20:28:58.873Z,10.30
2023-04-08T20:31:29.571Z,10.30
2023-04-08T20:34:00.417Z,10.30
2023-04-08T20:36:29.643Z,10.30
2023-04-08T20:39:00.469Z,10.30
2023-04-08T20:41:30.467Z,10.30
2023-04-08T20:43:59.939Z,10.30
2023-04-08T20:46:29.696Z,10.30
2023-04-08T20:48:58.290Z,10.30
2023-04-08T20:51:31.722Z,10.30
2023-04-08T20:54:00.044Z,10.20
2023-04-08T20:56:28.240Z,10.30
2023-04-08T20:58:58.235Z,10.20
2023-04-08T21:01:29.548Z,10.20
2023-04-08T21:04:00.796Z,10.10
2023-04-08T21:06:28.962Z,10.10
2023-04-08T21:08:58.892Z,10.10
2023-04-08T21:11:29.548Z,10.10
2023-04-08T21:13:57.688Z,10.00
2023-04-08T21:16:25.883Z,10.00
2023-04-08T21:18:57.633Z,10.00
2023-04-08T21:24:57.939Z,10.00
2023-04-08T21:27:26.194Z,10.00
2023-04-08T21:29:54.334Z,10.00
2023-04-08T21:32:22.515Z,9.90
2023-04-08T21:34:53.925Z,9.90
2023-04-08T21:37:22.741Z,9.80
2023-04-08T21:40:14.595Z,9.90
2023-04-08T21:43:02.206Z,9.80
2023-04-08T21:45:33.366Z,9.80
2023-04-08T21:48:03.988Z,9.80
2023-04-08T21:50:33.524Z,9.80
2023-04-08T21:53:02.910Z,9.80
2023-04-08T21:55:31.300Z,9.80
2023-04-08T21:58:01.362Z,9.80
2023-04-08T22:00:34.213Z,9.80
2023-04-08T22:03:05.574Z,9.80
2023-04-08T22:05:35.345Z,9.80
2023-04-08T22:08:03.613Z,9.70
2023-04-08T22:10:31.915Z,9.70
2023-04-08T22:13:00.042Z,9.70
2023-04-08T22:15:28.315Z,9.70
2023-04-08T22:17:56.476Z,9.70
2023-04-08T22:20:24.722Z,9.70
2023-04-08T22:22:54.476Z,9.80
2023-04-08T22:25:22.713Z,9.80
2023-04-08T22:27:52.321Z,9.80
2023-04-08T22:30:21.458Z,9.80
2023-04-08T22:32:49.703Z,9.70
2023-04-08T22:35:17.985Z,9.70
2023-04-08T22:37:46.188Z,9.70
2023-04-08T22:40:15.915Z,9.70
2023-04-08T22:42:44.067Z,9.70
2023-04-08T22:45:12.364Z,9.70
2023-04-08T22:47:40.538Z,9.70
2023-04-08T22:50:12.540Z,9.80
2023-04-08T22:52:40.734Z,9.70
2023-04-08T22:55:09.590Z,9.80
2023-04-08T22:57:39.129Z,9.80
2023-04-08T23:00:09.354Z,9.80
2023-04-08T23:02:37.697Z,9.70
2023-04-08T23:05:06.779Z,9.60
2023-04-08T23:07:35.463Z,9.70
2023-04-08T23:10:07.030Z,9.70
2023-04-08T23:12:35.464Z,9.70
2023-04-08T23:15:06.656Z,9.80
2023-04-08T23:17:37.807Z,9.80
2023-04-08T23:20:08.848Z,9.80
2023-04-08T23:22:39.770Z,9.80
2023-04-08T23:25:09.219Z,9.80
2023-04-08T23:27:37.528Z,9.80
2023-04-08T23:30:08.480Z,9.80
2023-04-08T23:32:37.009Z,9.70
2023-04-08T23:35:10.761Z,9.80
2023-04-08T23:37:39.650Z,9.80
2023-04-08T23:40:09.456Z,9.80
2023-04-08T23:42:37.655Z,9.80
2023-04-08T23:45:08.426Z,9.70
2023-04-08T23:47:36.798Z,9.70
2023-04-08T23:50:05.516Z,9.70
2023-04-08T23:52:33.640Z,9.70
2023-04-08T23:55:03.778Z,9.70
2023-04-08T23:57:31.886Z,9.70
